UPSVAC Airport Information Service

Katowice International Airport

ICAO: EPKT Country: Poland
Latitude: 50.4743 Longitude: 19.08
Latest Arrival : UPSJUMP (EFHK-EPKT) Latest Departure : ABR1483(A) (EPKT-EDDK)


WX CaptureLIVE
Data provided by noaa.gov | Fetched at 13:25:52

METAR : EPKT 141300Z 34007KT 9999 -RASN FEW004 BKN029 02/01 Q1021

TAF : EPKT 141130Z 1412/1512 34010KT 9999 SCT010 BKN015 TEMPO 1412/1421 4000 -RASN BR BKN008 BECMG 1421/1424 2500 -SNRA BR BKN008 TEMPO 1500/1512 1200 SN SNRA BR BKN003


Runway Data for EPKT
Data provided by openaviationdata.com

Runway ID Mag Var Hdg Length Elevation Surface ILS Freq ILS Id ILS Slope
9 4 86° 9164 ft 994 ft Concrete -- -- --
27 4 266° 9164 ft 994 ft Concrete 109.9 KAT 3

Katowice International Airport, Poland
Use only for reference purposes



Not for navigational purposes.